McLeod, MT

12:49 AM MST on February 13, 2016 (GMT -0700)
Gish Mine Area, FS Trail 117 | | Change Station
CLOSE
Current Station
Personal Weather Station
Location: Mc Leod, MT
Elevation: 5597 ft
Nearby Weather Stations

Elev 5597 ft 45.48 °N, 110.20 °W | Updated 11 minutes ago

Partly Cloudy
Partly Cloudy
44.8 °F
Feels Like 45 °F
N
2.7
Wind Variable Wind from SW

Today
High -- | Low -- °F
--% Chance of Precip.
Yesterday
High -- | Low -- °F
Precip. -- in
Pressure 29.96 in
Visibility 10.0 miles
Clouds Clear
Windchill 45 °F
Dew Point 20 °F
Humidity 36%
Rainfall 0.00 in
Snow Depth Not available.
7:26 AM 5:44 PM
Waxing Crescent, 28% visible
METAR KLVM 130653Z AUTO 21033G40KT 10SM CLR 11/M08 A2999 RMK AO2 PK WND 21040/0652 SLP144 T01061078 401610022
Pressure 29.96 in
Visibility 10.0 miles
Clouds Clear
Windchill 45 °F
Dew Point 20 °F
Humidity 36%
Rainfall 0.00 in
Snow Depth Not available.
7:26 AM 5:44 PM
Waxing Crescent, 28% visible
METAR KLVM 130653Z AUTO 21033G40KT 10SM CLR 11/M08 A2999 RMK AO2 PK WND 21040/0652 SLP144 T01061078 401610022

10-Day Weather Forecast

Almanac

Astronomy

Feb. 13, 2016 Rise Set
Actual Time
Civil Twilight
Nautical Twilight
Astronomical Twilight
Moon
Length of Visible Light
Length of Day
Tomorrow will be .
, % of the Moon is Illuminated

Today's Extremes

State Highs State Lows

Community

WunderPhotos

Upload Photos

1,892,526 photos uploaded!

WunderBlog® & News

Nearby

Air Quality

  Air Quality AQ Index Pollutant
Not available.

Snow Depth

Station Depth Elevation

Earthquake Activity

City Distance Mag. Time & Date
Minimum magnitude displayed is 2.5.

Coastal Water Temperatures

Place Temperature

Stations

Nearby Weather Stations

Station Location Temp. Windchill Dew Point Humidity Wind Precip. Elev Updated Type
                   

Watches & Warnings

There are currently no watches in effect.